sensor_id;sensor_type;location;lat;lon;timestamp;pressure;altitude;pressure_sealevel;temperature;humidity
59531;BME280;45349;48.692;8.186;2023-04-27T00:01:51;98767.09;;;7.22;90.41
59531;BME280;45349;48.692;8.186;2023-04-27T00:04:18;98761.47;;;7.17;90.42
59531;BME280;45349;48.692;8.186;2023-04-27T00:06:45;98751.34;;;7.14;89.71
59531;BME280;45349;48.692;8.186;2023-04-27T00:09:11;98746.72;;;7.17;89.13
59531;BME280;45349;48.692;8.186;2023-04-27T00:11:38;98750.53;;;7.13;88.06
59531;BME280;45349;48.692;8.186;2023-04-27T00:14:04;98740.41;;;7.10;89.72
59531;BME280;45349;48.692;8.186;2023-04-27T00:16:31;98736.16;;;7.09;89.99
59531;BME280;45349;48.692;8.186;2023-04-27T00:18:59;98740.75;;;7.05;90.66
59531;BME280;45349;48.692;8.186;2023-04-27T00:21:26;98739.50;;;7.00;89.29
59531;BME280;45349;48.692;8.186;2023-04-27T00:23:53;98734.56;;;6.97;89.52
59531;BME280;45349;48.692;8.186;2023-04-27T00:26:19;98733.16;;;6.92;89.80
59531;BME280;45349;48.692;8.186;2023-04-27T00:28:49;98735.75;;;6.92;90.23
59531;BME280;45349;48.692;8.186;2023-04-27T00:31:15;98732.31;;;6.92;89.48
59531;BME280;45349;48.692;8.186;2023-04-27T00:33:42;98734.34;;;6.88;89.82
59531;BME280;45349;48.692;8.186;2023-04-27T00:36:10;98733.78;;;6.85;90.43
59531;BME280;45349;48.692;8.186;2023-04-27T00:38:36;98734.59;;;6.85;90.91
59531;BME280;45349;48.692;8.186;2023-04-27T00:41:05;98740.03;;;6.82;91.25
59531;BME280;45349;48.692;8.186;2023-04-27T00:43:40;98741.94;;;6.80;91.06
59531;BME280;45349;48.692;8.186;2023-04-27T00:46:07;98731.00;;;6.76;91.33
59531;BME280;45349;48.692;8.186;2023-04-27T00:48:34;98727.81;;;6.73;90.72
59531;BME280;45349;48.692;8.186;2023-04-27T00:51:01;98731.25;;;6.73;90.56
59531;BME280;45349;48.692;8.186;2023-04-27T00:53:30;98735.72;;;6.71;89.64
59531;BME280;45349;48.692;8.186;2023-04-27T00:55:57;98734.44;;;6.65;89.52
59531;BME280;45349;48.692;8.186;2023-04-27T00:58:23;98740.72;;;6.63;89.98
59531;BME280;45349;48.692;8.186;2023-04-27T01:00:51;98744.25;;;6.62;91.04
59531;BME280;45349;48.692;8.186;2023-04-27T01:03:18;98752.13;;;6.60;90.92
59531;BME280;45349;48.692;8.186;2023-04-27T01:05:44;98747.19;;;6.57;91.53
59531;BME280;45349;48.692;8.186;2023-04-27T01:08:11;98743.31;;;6.52;91.83
59531;BME280;45349;48.692;8.186;2023-04-27T01:10:39;98744.13;;;6.52;92.27
59531;BME280;45349;48.692;8.186;2023-04-27T01:13:08;98745.06;;;6.51;92.25
59531;BME280;45349;48.692;8.186;2023-04-27T01:15:36;98735.53;;;6.52;92.40
59531;BME280;45349;48.692;8.186;2023-04-27T01:18:07;98738.94;;;6.52;93.40
59531;BME280;45349;48.692;8.186;2023-04-27T01:20:36;98739.09;;;6.50;92.89
59531;BME280;45349;48.692;8.186;2023-04-27T01:23:03;98737.28;;;6.51;93.28
59531;BME280;45349;48.692;8.186;2023-04-27T01:25:31;98738.25;;;6.50;93.25
59531;BME280;45349;48.692;8.186;2023-04-27T01:28:00;98744.13;;;6.52;92.75
59531;BME280;45349;48.692;8.186;2023-04-27T01:30:28;98745.22;;;6.49;92.77
59531;BME280;45349;48.692;8.186;2023-04-27T01:32:57;98747.91;;;6.48;92.69
59531;BME280;45349;48.692;8.186;2023-04-27T01:35:24;98748.16;;;6.45;92.17
59531;BME280;45349;48.692;8.186;2023-04-27T01:37:50;98743.56;;;6.48;92.22
59531;BME280;45349;48.692;8.186;2023-04-27T01:40:17;98748.63;;;6.50;93.43
59531;BME280;45349;48.692;8.186;2023-04-27T01:42:45;98753.09;;;6.48;93.39
59531;BME280;45349;48.692;8.186;2023-04-27T01:45:11;98745.91;;;6.52;92.85
59531;BME280;45349;48.692;8.186;2023-04-27T01:47:38;98755.34;;;6.53;93.30
59531;BME280;45349;48.692;8.186;2023-04-27T01:50:05;98745.91;;;6.52;93.15
59531;BME280;45349;48.692;8.186;2023-04-27T01:52:32;98749.78;;;6.57;92.81
59531;BME280;45349;48.692;8.186;2023-04-27T01:55:01;98750.47;;;6.59;92.20
59531;BME280;45349;48.692;8.186;2023-04-27T01:57:28;98743.41;;;6.61;91.59
59531;BME280;45349;48.692;8.186;2023-04-27T01:59:56;98739.63;;;6.65;91.84
59531;BME280;45349;48.692;8.186;2023-04-27T02:02:23;98744.56;;;6.69;90.96
59531;BME280;45349;48.692;8.186;2023-04-27T02:04:52;98743.38;;;6.73;92.24
59531;BME280;45349;48.692;8.186;2023-04-27T02:07:19;98742.56;;;6.72;93.25
59531;BME280;45349;48.692;8.186;2023-04-27T02:09:49;98743.25;;;6.74;93.43
59531;BME280;45349;48.692;8.186;2023-04-27T02:12:16;98745.97;;;6.73;93.58
59531;BME280;45349;48.692;8.186;2023-04-27T02:14:43;98744.22;;;6.73;94.04
59531;BME280;45349;48.692;8.186;2023-04-27T02:17:11;98750.22;;;6.74;94.37
59531;BME280;45349;48.692;8.186;2023-04-27T02:19:38;98746.66;;;6.75;94.71
59531;BME280;45349;48.692;8.186;2023-04-27T02:22:04;98748.31;;;6.76;93.84
59531;BME280;45349;48.692;8.186;2023-04-27T02:24:31;98739.47;;;6.78;95.29
59531;BME280;45349;48.692;8.186;2023-04-27T02:26:59;98747.13;;;6.80;96.06
59531;BME280;45349;48.692;8.186;2023-04-27T03:21:59;98753.28;;;6.68;99.68
59531;BME280;45349;48.692;8.186;2023-04-27T03:24:26;98755.31;;;6.64;97.49
59531;BME280;45349;48.692;8.186;2023-04-27T03:26:53;98756.13;;;6.64;96.71
59531;BME280;45349;48.692;8.186;2023-04-27T03:29:20;98751.88;;;6.63;97.11
59531;BME280;45349;48.692;8.186;2023-04-27T03:31:46;98753.78;;;6.61;97.18
59531;BME280;45349;48.692;8.186;2023-04-27T03:34:13;98759.66;;;6.63;96.03
59531;BME280;45349;48.692;8.186;2023-04-27T03:36:40;98755.44;;;6.62;97.00
59531;BME280;45349;48.692;8.186;2023-04-27T03:39:10;98750.63;;;6.58;95.42
59531;BME280;45349;48.692;8.186;2023-04-27T03:41:37;98750.03;;;6.54;95.41
59531;BME280;45349;48.692;8.186;2023-04-27T03:44:03;98752.63;;;6.54;96.69
59531;BME280;45349;48.692;8.186;2023-04-27T03:46:31;98748.38;;;6.53;96.49
59531;BME280;45349;48.692;8.186;2023-04-27T03:48:59;98749.31;;;6.52;96.68
59531;BME280;45349;48.692;8.186;2023-04-27T03:51:25;98750.28;;;6.51;95.86
59531;BME280;45349;48.692;8.186;2023-04-27T03:53:52;98750.97;;;6.53;96.72
59531;BME280;45349;48.692;8.186;2023-04-27T03:56:20;98753.94;;;6.48;96.16
59531;BME280;45349;48.692;8.186;2023-04-27T03:58:46;98754.03;;;6.47;96.57
59531;BME280;45349;48.692;8.186;2023-04-27T04:01:18;98751.59;;;6.45;96.90
59531;BME280;45349;48.692;8.186;2023-04-27T04:03:47;98756.78;;;6.45;95.85
59531;BME280;45349;48.692;8.186;2023-04-27T04:06:15;98756.63;;;6.47;95.75
59531;BME280;45349;48.692;8.186;2023-04-27T04:08:43;98757.47;;;6.47;95.20
59531;BME280;45349;48.692;8.186;2023-04-27T04:11:10;98758.03;;;6.51;95.48
59531;BME280;45349;48.692;8.186;2023-04-27T04:13:38;98764.31;;;6.48;96.31
59531;BME280;45349;48.692;8.186;2023-04-27T04:16:08;98761.81;;;6.47;96.63
59531;BME280;45349;48.692;8.186;2023-04-27T04:18:35;98753.09;;;6.48;97.66
59531;BME280;45349;48.692;8.186;2023-04-27T04:21:03;98762.78;;;6.46;98.70
59531;BME280;45349;48.692;8.186;2023-04-27T04:23:30;98757.72;;;6.44;98.78
59531;BME280;45349;48.692;8.186;2023-04-27T04:25:57;98763.38;;;6.38;97.13
59531;BME280;45349;48.692;8.186;2023-04-27T04:28:28;98757.50;;;6.36;97.16
59531;BME280;45349;48.692;8.186;2023-04-27T04:30:57;98763.06;;;6.31;97.78
59531;BME280;45349;48.692;8.186;2023-04-27T04:33:24;98777.06;;;6.29;97.22
59531;BME280;45349;48.692;8.186;2023-04-27T04:35:51;98774.59;;;6.27;96.87
59531;BME280;45349;48.692;8.186;2023-04-27T04:38:19;98773.66;;;6.28;96.79
59531;BME280;45349;48.692;8.186;2023-04-27T04:40:45;98767.53;;;6.29;97.60
59531;BME280;45349;48.692;8.186;2023-04-27T04:43:12;98771.19;;;6.27;96.16
59531;BME280;45349;48.692;8.186;2023-04-27T04:45:39;98773.91;;;6.25;95.34
59531;BME280;45349;48.692;8.186;2023-04-27T04:48:07;98771.19;;;6.27;97.80
59531;BME280;45349;48.692;8.186;2023-04-27T04:50:34;98772.72;;;6.29;98.07
59531;BME280;45349;48.692;8.186;2023-04-27T04:53:01;98777.06;;;6.29;98.40
59531;BME280;45349;48.692;8.186;2023-04-27T04:55:28;98766.59;;;6.30;99.22
59531;BME280;45349;48.692;8.186;2023-04-27T04:57:54;98776.47;;;6.37;98.45
59531;BME280;45349;48.692;8.186;2023-04-27T05:00:21;98779.50;;;6.42;98.18
59531;BME280;45349;48.692;8.186;2023-04-27T05:02:48;98777.53;;;6.45;97.81
59531;BME280;45349;48.692;8.186;2023-04-27T05:05:16;98776.81;;;6.55;97.94
59531;BME280;45349;48.692;8.186;2023-04-27T05:07:42;98776.88;;;6.64;97.75
59531;BME280;45349;48.692;8.186;2023-04-27T05:10:09;98784.53;;;6.77;97.71
59531;BME280;45349;48.692;8.186;2023-04-27T05:12:36;98777.38;;;6.91;97.89
59531;BME280;45349;48.692;8.186;2023-04-27T05:15:03;98784.06;;;7.05;97.49
59531;BME280;45349;48.692;8.186;2023-04-27T05:17:29;98767.75;;;7.14;96.98
59531;BME280;45349;48.692;8.186;2023-04-27T05:19:56;98777.63;;;7.20;97.03
59531;BME280;45349;48.692;8.186;2023-04-27T05:22:24;98778.91;;;7.26;99.39
59531;BME280;45349;48.692;8.186;2023-04-27T05:24:52;98780.47;;;7.38;97.46
59531;BME280;45349;48.692;8.186;2023-04-27T05:27:20;98782.19;;;7.49;96.39
59531;BME280;45349;48.692;8.186;2023-04-27T05:29:52;98788.69;;;7.65;96.00
59531;BME280;45349;48.692;8.186;2023-04-27T05:32:19;98793.31;;;7.82;96.60
59531;BME280;45349;48.692;8.186;2023-04-27T05:35:11;98791.25;;;8.07;96.34
59531;BME280;45349;48.692;8.186;2023-04-27T05:37:39;98800.25;;;8.34;95.53
59531;BME280;45349;48.692;8.186;2023-04-27T05:40:06;98800.31;;;8.54;94.89
59531;BME280;45349;48.692;8.186;2023-04-27T05:42:34;98795.13;;;8.74;94.87
59531;BME280;45349;48.692;8.186;2023-04-27T05:45:01;98803.94;;;8.92;93.25
59531;BME280;45349;48.692;8.186;2023-04-27T05:47:28;98803.94;;;9.12;91.68
59531;BME280;45349;48.692;8.186;2023-04-27T05:49:55;98809.72;;;9.25;89.70
59531;BME280;45349;48.692;8.186;2023-04-27T05:52:22;98816.53;;;9.36;87.12
59531;BME280;45349;48.692;8.186;2023-04-27T05:54:55;98819.56;;;9.51;81.98
59531;BME280;45349;48.692;8.186;2023-04-27T05:57:23;98827.88;;;9.65;78.18
59531;BME280;45349;48.692;8.186;2023-04-27T05:59:52;98826.22;;;9.83;78.33
59531;BME280;45349;48.692;8.186;2023-04-27T06:02:19;98816.72;;;9.92;76.59
59531;BME280;45349;48.692;8.186;2023-04-27T06:05:11;98836.75;;;9.92;79.45
59531;BME280;45349;48.692;8.186;2023-04-27T06:07:38;98838.00;;;9.87;78.18
59531;BME280;45349;48.692;8.186;2023-04-27T06:10:08;98834.03;;;9.83;80.31
59531;BME280;45349;48.692;8.186;2023-04-27T06:12:35;98840.19;;;9.92;82.44
59531;BME280;45349;48.692;8.186;2023-04-27T06:15:03;98842.25;;;9.98;79.27
59531;BME280;45349;48.692;8.186;2023-04-27T06:17:32;98840.28;;;10.10;78.64
59531;BME280;45349;48.692;8.186;2023-04-27T06:19:59;98847.78;;;10.23;79.42
59531;BME280;45349;48.692;8.186;2023-04-27T06:22:25;98851.84;;;10.36;78.75
59531;BME280;45349;48.692;8.186;2023-04-27T06:24:52;98848.38;;;10.55;78.04
59531;BME280;45349;48.692;8.186;2023-04-27T06:27:21;98857.03;;;10.73;77.89
59531;BME280;45349;48.692;8.186;2023-04-27T06:29:53;98853.13;;;10.87;74.69
59531;BME280;45349;48.692;8.186;2023-04-27T06:32:19;98856.56;;;10.88;75.04
59531;BME280;45349;48.692;8.186;2023-04-27T06:35:11;98864.63;;;10.95;74.49
59531;BME280;45349;48.692;8.186;2023-04-27T06:37:38;98860.69;;;11.08;75.83
59531;BME280;45349;48.692;8.186;2023-04-27T06:40:05;98866.75;;;11.09;76.18
59531;BME280;45349;48.692;8.186;2023-04-27T06:42:33;98868.69;;;11.07;76.71
59531;BME280;45349;48.692;8.186;2023-04-27T06:45:00;98862.78;;;11.23;81.06
59531;BME280;45349;48.692;8.186;2023-04-27T06:47:28;98861.66;;;11.44;75.46
59531;BME280;45349;48.692;8.186;2023-04-27T06:49:54;98857.78;;;11.48;75.35
59531;BME280;45349;48.692;8.186;2023-04-27T06:52:21;98863.06;;;11.56;74.38
59531;BME280;45349;48.692;8.186;2023-04-27T06:54:53;98861.53;;;11.72;74.73
59531;BME280;45349;48.692;8.186;2023-04-27T06:57:19;98855.13;;;11.92;71.70
59531;BME280;45349;48.692;8.186;2023-04-27T07:00:13;98857.97;;;11.99;69.62
59531;BME280;45349;48.692;8.186;2023-04-27T07:02:40;98854.59;;;12.07;68.87
59531;BME280;45349;48.692;8.186;2023-04-27T07:05:08;98863.13;;;12.09;65.68
59531;BME280;45349;48.692;8.186;2023-04-27T07:07:35;98861.03;;;12.21;66.63
59531;BME280;45349;48.692;8.186;2023-04-27T07:10:04;98859.00;;;12.33;66.95
59531;BME280;45349;48.692;8.186;2023-04-27T07:12:31;98860.81;;;12.40;71.04
59531;BME280;45349;48.692;8.186;2023-04-27T07:14:58;98859.22;;;12.48;68.82
59531;BME280;45349;48.692;8.186;2023-04-27T07:17:26;98851.28;;;12.66;65.98
59531;BME280;45349;48.692;8.186;2023-04-27T07:19:52;98864.03;;;12.61;63.65
59531;BME280;45349;48.692;8.186;2023-04-27T07:22:20;98857.84;;;12.78;65.71
59531;BME280;45349;48.692;8.186;2023-04-27T07:25:11;98862.47;;;12.93;65.58
59531;BME280;45349;48.692;8.186;2023-04-27T07:27:38;98861.19;;;13.05;62.14
59531;BME280;45349;48.692;8.186;2023-04-27T07:30:06;98862.34;;;13.11;62.90
59531;BME280;45349;48.692;8.186;2023-04-27T07:32:35;98860.50;;;12.95;64.79
59531;BME280;45349;48.692;8.186;2023-04-27T07:35:03;98865.63;;;13.13;64.93
59531;BME280;45349;48.692;8.186;2023-04-27T07:37:30;98863.13;;;12.95;68.01
59531;BME280;45349;48.692;8.186;2023-04-27T07:39:56;98867.94;;;13.16;68.17
59531;BME280;45349;48.692;8.186;2023-04-27T07:42:23;98863.34;;;13.18;67.28
59531;BME280;45349;48.692;8.186;2023-04-27T07:44:53;98864.81;;;13.12;67.50
59531;BME280;45349;48.692;8.186;2023-04-27T07:47:19;98864.66;;;13.22;67.17
59531;BME280;45349;48.692;8.186;2023-04-27T07:50:12;98853.69;;;13.27;67.53
59531;BME280;45349;48.692;8.186;2023-04-27T07:52:40;98858.00;;;13.53;67.34
59531;BME280;45349;48.692;8.186;2023-04-27T07:55:07;98863.06;;;13.71;65.23
59531;BME280;45349;48.692;8.186;2023-04-27T07:57:34;98856.34;;;13.60;62.84
59531;BME280;45349;48.692;8.186;2023-04-27T08:00:00;98858.00;;;13.45;64.55
59531;BME280;45349;48.692;8.186;2023-04-27T08:02:38;98858.94;;;13.35;65.98
59531;BME280;45349;48.692;8.186;2023-04-27T08:05:05;98858.66;;;13.63;65.71
59531;BME280;45349;48.692;8.186;2023-04-27T08:07:35;98859.59;;;13.79;65.82
59531;BME280;45349;48.692;8.186;2023-04-27T08:10:03;98856.81;;;13.97;64.45
59531;BME280;45349;48.692;8.186;2023-04-27T08:12:31;98858.53;;;14.21;63.67
59531;BME280;45349;48.692;8.186;2023-04-27T08:14:57;98854.28;;;14.20;63.41
59531;BME280;45349;48.692;8.186;2023-04-27T08:17:24;98848.13;;;13.80;63.45
59531;BME280;45349;48.692;8.186;2023-04-27T08:19:53;98843.19;;;13.85;62.37
59531;BME280;45349;48.692;8.186;2023-04-27T08:22:19;98844.88;;;13.69;62.42
59531;BME280;45349;48.692;8.186;2023-04-27T08:25:12;98845.66;;;13.78;64.88
59531;BME280;45349;48.692;8.186;2023-04-27T08:27:39;98844.34;;;13.82;64.35
59531;BME280;45349;48.692;8.186;2023-04-27T08:30:07;98843.88;;;13.70;62.25
59531;BME280;45349;48.692;8.186;2023-04-27T08:32:33;98843.91;;;13.54;64.21
59531;BME280;45349;48.692;8.186;2023-04-27T08:35:00;98853.41;;;13.71;63.72
59531;BME280;45349;48.692;8.186;2023-04-27T08:37:27;98845.81;;;13.85;62.54
59531;BME280;45349;48.692;8.186;2023-04-27T08:39:53;98847.94;;;13.98;61.81
59531;BME280;45349;48.692;8.186;2023-04-27T08:42:21;98848.97;;;13.64;62.34
59531;BME280;45349;48.692;8.186;2023-04-27T08:44:53;98852.03;;;14.00;62.53
59531;BME280;45349;48.692;8.186;2023-04-27T08:47:20;98845.63;;;14.11;62.52
59531;BME280;45349;48.692;8.186;2023-04-27T08:50:14;98846.50;;;14.35;62.25
59531;BME280;45349;48.692;8.186;2023-04-27T08:52:43;98855.25;;;14.27;60.69
59531;BME280;45349;48.692;8.186;2023-04-27T08:55:09;98853.53;;;14.43;62.08
59531;BME280;45349;48.692;8.186;2023-04-27T08:57:37;98850.38;;;13.99;60.49
59531;BME280;45349;48.692;8.186;2023-04-27T09:00:05;98848.88;;;14.22;59.82
59531;BME280;45349;48.692;8.186;2023-04-27T09:02:43;98849.34;;;14.25;60.48
59531;BME280;45349;48.692;8.186;2023-04-27T09:05:14;98851.47;;;14.30;61.40
59531;BME280;45349;48.692;8.186;2023-04-27T09:07:41;98854.31;;;14.52;58.79
59531;BME280;45349;48.692;8.186;2023-04-27T09:10:08;98846.75;;;14.09;60.26
59531;BME280;45349;48.692;8.186;2023-04-27T09:12:38;98852.56;;;14.44;59.85
59531;BME280;45349;48.692;8.186;2023-04-27T09:15:06;98852.31;;;14.70;57.85
59531;BME280;45349;48.692;8.186;2023-04-27T09:17:32;98855.13;;;14.60;56.78
59531;BME280;45349;48.692;8.186;2023-04-27T09:20:03;98861.66;;;14.73;57.48
59531;BME280;45349;48.692;8.186;2023-04-27T09:22:42;98864.38;;;14.88;58.93
59531;BME280;45349;48.692;8.186;2023-04-27T09:25:09;98861.66;;;14.73;56.02
59531;BME280;45349;48.692;8.186;2023-04-27T09:27:38;98864.19;;;14.89;54.45
59531;BME280;45349;48.692;8.186;2023-04-27T09:30:12;98856.69;;;15.10;56.33
59531;BME280;45349;48.692;8.186;2023-04-27T09:32:38;98861.25;;;15.39;53.72
59531;BME280;45349;48.692;8.186;2023-04-27T09:35:19;98860.00;;;15.50;54.52
59531;BME280;45349;48.692;8.186;2023-04-27T09:37:51;98858.38;;;15.87;54.45
59531;BME280;45349;48.692;8.186;2023-04-27T09:40:18;98856.97;;;16.30;51.93
59531;BME280;45349;48.692;8.186;2023-04-27T09:42:49;98862.13;;;16.23;51.32
59531;BME280;45349;48.692;8.186;2023-04-27T09:45:16;98857.94;;;16.44;50.94
59531;BME280;45349;48.692;8.186;2023-04-27T09:47:44;98852.31;;;16.47;49.21
59531;BME280;45349;48.692;8.186;2023-04-27T09:50:12;98854.59;;;16.50;49.26
59531;BME280;45349;48.692;8.186;2023-04-27T09:52:39;98852.69;;;16.44;49.81
59531;BME280;45349;48.692;8.186;2023-04-27T09:55:08;98852.75;;;16.65;47.81
59531;BME280;45349;48.692;8.186;2023-04-27T09:57:39;98853.25;;;16.39;46.55
59531;BME280;45349;48.692;8.186;2023-04-27T10:00:22;98846.88;;;16.33;47.59
59531;BME280;45349;48.692;8.186;2023-04-27T10:03:02;98850.09;;;16.65;48.31
59531;BME280;45349;48.692;8.186;2023-04-27T10:05:49;98843.72;;;16.75;47.83
59531;BME280;45349;48.692;8.186;2023-04-27T10:08:28;98849.25;;;16.80;48.78
59531;BME280;45349;48.692;8.186;2023-04-27T10:10:54;98843.44;;;16.03;52.67
59531;BME280;45349;48.692;8.186;2023-04-27T10:13:23;98842.34;;;16.42;51.85
59531;BME280;45349;48.692;8.186;2023-04-27T10:15:52;98845.72;;;16.73;52.90
59531;BME280;45349;48.692;8.186;2023-04-27T10:18:26;98840.13;;;16.46;50.89
59531;BME280;45349;48.692;8.186;2023-04-27T10:20:54;98843.59;;;16.31;53.53
59531;BME280;45349;48.692;8.186;2023-04-27T10:23:24;98845.69;;;16.36;52.11
59531;BME280;45349;48.692;8.186;2023-04-27T10:25:52;98841.88;;;16.08;51.85
59531;BME280;45349;48.692;8.186;2023-04-27T10:28:19;98837.16;;;16.34;52.75
59531;BME280;45349;48.692;8.186;2023-04-27T10:30:46;98837.13;;;16.49;48.88
59531;BME280;45349;48.692;8.186;2023-04-27T10:33:17;98827.19;;;16.14;47.93
59531;BME280;45349;48.692;8.186;2023-04-27T10:35:54;98830.31;;;16.55;49.19
59531;BME280;45349;48.692;8.186;2023-04-27T10:38:27;98826.75;;;16.62;47.07
59531;BME280;45349;48.692;8.186;2023-04-27T10:40:55;98826.13;;;16.45;49.08
59531;BME280;45349;48.692;8.186;2023-04-27T10:43:24;98821.72;;;16.31;47.09
59531;BME280;45349;48.692;8.186;2023-04-27T10:45:51;98833.91;;;16.32;47.20
59531;BME280;45349;48.692;8.186;2023-04-27T10:48:19;98826.44;;;16.35;47.74
59531;BME280;45349;48.692;8.186;2023-04-27T10:50:46;98827.81;;;16.16;48.01
59531;BME280;45349;48.692;8.186;2023-04-27T10:53:13;98826.19;;;16.15;47.16
59531;BME280;45349;48.692;8.186;2023-04-27T10:55:39;98821.19;;;15.90;49.38
59531;BME280;45349;48.692;8.186;2023-04-27T10:58:06;98821.09;;;15.60;50.75
59531;BME280;45349;48.692;8.186;2023-04-27T11:00:35;98816.91;;;15.89;51.31
59531;BME280;45349;48.692;8.186;2023-04-27T11:03:10;98828.19;;;16.13;50.19
59531;BME280;45349;48.692;8.186;2023-04-27T11:05:40;98824.63;;;16.21;48.41
59531;BME280;45349;48.692;8.186;2023-04-27T11:08:08;98826.25;;;16.37;50.51
59531;BME280;45349;48.692;8.186;2023-04-27T11:10:37;98828.63;;;16.32;48.53
59531;BME280;45349;48.692;8.186;2023-04-27T11:13:08;98826.72;;;15.96;50.51
59531;BME280;45349;48.692;8.186;2023-04-27T11:15:46;98825.53;;;15.98;50.40
59531;BME280;45349;48.692;8.186;2023-04-27T11:18:13;98821.53;;;16.02;51.33
59531;BME280;45349;48.692;8.186;2023-04-27T11:20:42;98815.91;;;16.35;50.83
59531;BME280;45349;48.692;8.186;2023-04-27T11:23:09;98806.72;;;16.31;50.54
59531;BME280;45349;48.692;8.186;2023-04-27T11:25:36;98806.47;;;16.26;50.88
59531;BME280;45349;48.692;8.186;2023-04-27T11:28:03;98803.75;;;16.04;50.12
59531;BME280;45349;48.692;8.186;2023-04-27T11:30:30;98800.28;;;16.19;52.06
59531;BME280;45349;48.692;8.186;2023-04-27T11:32:57;98797.09;;;16.08;51.45
59531;BME280;45349;48.692;8.186;2023-04-27T11:35:31;98786.03;;;16.13;54.23
59531;BME280;45349;48.692;8.186;2023-04-27T11:37:59;98789.81;;;16.41;53.31
59531;BME280;45349;48.692;8.186;2023-04-27T11:40:26;98779.31;;;16.11;52.87
59531;BME280;45349;48.692;8.186;2023-04-27T11:42:56;98782.91;;;16.40;51.51
59531;BME280;45349;48.692;8.186;2023-04-27T11:45:25;98783.47;;;16.20;51.23
59531;BME280;45349;48.692;8.186;2023-04-27T11:47:52;98778.91;;;16.44;51.43
59531;BME280;45349;48.692;8.186;2023-04-27T11:50:22;98779.97;;;16.49;51.43
59531;BME280;45349;48.692;8.186;2023-04-27T11:52:49;98773.97;;;16.56;52.31
59531;BME280;45349;48.692;8.186;2023-04-27T11:55:19;98775.22;;;16.60;51.27
59531;BME280;45349;48.692;8.186;2023-04-27T11:57:46;98775.19;;;16.75;50.17
59531;BME280;45349;48.692;8.186;2023-04-27T12:00:13;98775.38;;;16.73;53.85
59531;BME280;45349;48.692;8.186;2023-04-27T12:02:41;98773.84;;;16.64;49.91
59531;BME280;45349;48.692;8.186;2023-04-27T12:05:08;98776.56;;;16.71;50.48
59531;BME280;45349;48.692;8.186;2023-04-27T12:07:36;98774.13;;;16.91;50.98
59531;BME280;45349;48.692;8.186;2023-04-27T12:10:03;98769.81;;;17.05;48.40
59531;BME280;45349;48.692;8.186;2023-04-27T12:12:32;98771.31;;;17.14;48.72
59531;BME280;45349;48.692;8.186;2023-04-27T12:14:58;98769.63;;;17.28;47.17
59531;BME280;45349;48.692;8.186;2023-04-27T12:17:25;98766.50;;;17.18;46.66
59531;BME280;45349;48.692;8.186;2023-04-27T12:19:54;98769.84;;;17.62;47.30
59531;BME280;45349;48.692;8.186;2023-04-27T12:22:20;98761.59;;;17.43;47.80
59531;BME280;45349;48.692;8.186;2023-04-27T12:24:54;98769.78;;;17.83;47.59
59531;BME280;45349;48.692;8.186;2023-04-27T12:27:21;98758.13;;;17.71;46.99
59531;BME280;45349;48.692;8.186;2023-04-27T12:29:55;98761.78;;;17.70;46.49
59531;BME280;45349;48.692;8.186;2023-04-27T12:32:23;98758.72;;;18.02;45.74
59531;BME280;45349;48.692;8.186;2023-04-27T12:34:54;98753.00;;;17.98;46.54
59531;BME280;45349;48.692;8.186;2023-04-27T12:37:20;98750.09;;;17.86;44.12
59531;BME280;45349;48.692;8.186;2023-04-27T12:40:12;98760.25;;;17.89;48.03
59531;BME280;45349;48.692;8.186;2023-04-27T12:42:38;98756.88;;;18.02;46.25
59531;BME280;45349;48.692;8.186;2023-04-27T12:45:07;98762.06;;;18.17;46.23
59531;BME280;45349;48.692;8.186;2023-04-27T12:47:34;98767.44;;;18.02;46.43
59531;BME280;45349;48.692;8.186;2023-04-27T12:50:01;98758.97;;;18.13;45.92
59531;BME280;45349;48.692;8.186;2023-04-27T12:52:29;98766.66;;;18.02;45.05
59531;BME280;45349;48.692;8.186;2023-04-27T12:54:57;98774.88;;;18.20;48.36
59531;BME280;45349;48.692;8.186;2023-04-27T12:57:24;98765.31;;;18.19;47.33
59531;BME280;45349;48.692;8.186;2023-04-27T12:59:53;98760.66;;;18.21;44.21
59531;BME280;45349;48.692;8.186;2023-04-27T13:02:21;98752.28;;;18.11;45.01
59531;BME280;45349;48.692;8.186;2023-04-27T13:04:54;98754.03;;;18.52;43.33
59531;BME280;45349;48.692;8.186;2023-04-27T13:07:20;98751.81;;;18.56;44.10
59531;BME280;45349;48.692;8.186;2023-04-27T13:10:12;98752.81;;;18.55;45.82
59531;BME280;45349;48.692;8.186;2023-04-27T13:12:38;98754.06;;;18.66;44.45
59531;BME280;45349;48.692;8.186;2023-04-27T13:15:06;98748.31;;;18.42;44.79
59531;BME280;45349;48.692;8.186;2023-04-27T13:17:34;98754.91;;;18.80;43.32
59531;BME280;45349;48.692;8.186;2023-04-27T13:20:01;98761.03;;;18.87;42.47
59531;BME280;45349;48.692;8.186;2023-04-27T13:22:28;98748.41;;;18.89;43.91
59531;BME280;45349;48.692;8.186;2023-04-27T13:24:57;98755.34;;;19.17;41.38
59531;BME280;45349;48.692;8.186;2023-04-27T13:27:24;98749.81;;;18.85;42.67
59531;BME280;45349;48.692;8.186;2023-04-27T13:29:54;98737.66;;;19.04;41.87
59531;BME280;45349;48.692;8.186;2023-04-27T13:32:20;98731.97;;;19.00;40.44
59531;BME280;45349;48.692;8.186;2023-04-27T13:35:13;98741.13;;;19.11;40.42
59531;BME280;45349;48.692;8.186;2023-04-27T13:37:40;98740.09;;;19.12;41.45
59531;BME280;45349;48.692;8.186;2023-04-27T13:40:08;98742.94;;;19.17;40.13
59531;BME280;45349;48.692;8.186;2023-04-27T13:42:36;98741.31;;;19.10;42.90
59531;BME280;45349;48.692;8.186;2023-04-27T13:45:03;98740.50;;;19.29;39.86
59531;BME280;45349;48.692;8.186;2023-04-27T13:47:30;98740.28;;;19.44;40.28
59531;BME280;45349;48.692;8.186;2023-04-27T13:50:02;98742.53;;;19.14;38.56
59531;BME280;45349;48.692;8.186;2023-04-27T13:52:31;98733.56;;;19.42;39.21
59531;BME280;45349;48.692;8.186;2023-04-27T13:55:00;98738.25;;;19.46;39.77
59531;BME280;45349;48.692;8.186;2023-04-27T13:57:28;98741.13;;;19.38;39.31
59531;BME280;45349;48.692;8.186;2023-04-27T13:59:55;98737.44;;;19.32;39.72
59531;BME280;45349;48.692;8.186;2023-04-27T14:02:25;98725.13;;;19.79;40.64
59531;BME280;45349;48.692;8.186;2023-04-27T14:04:53;98736.69;;;20.11;37.81
59531;BME280;45349;48.692;8.186;2023-04-27T14:07:20;98730.59;;;20.04;39.18